createdAt,value
2018-03-23T00:00:03.825Z,2.07
2018-03-23T00:00:07.924Z,2.01
2018-03-23T00:00:12.046Z,2.07
2018-03-23T00:00:16.037Z,2.02
2018-03-23T00:00:20.044Z,2
2018-03-23T00:00:24.037Z,2.05
2018-03-23T00:00:27.922Z,2.08
2018-03-23T00:00:32.022Z,2
2018-03-23T00:00:36.019Z,2.02
2018-03-23T00:00:40.345Z,2.07
2018-03-23T00:00:44.660Z,1.95
2018-03-23T00:00:48.864Z,2.07
2018-03-23T00:00:53.178Z,2
2018-03-23T00:00:57.387Z,2.02
2018-03-23T00:01:01.947Z,2.02
2018-03-23T00:01:05.727Z,1.93
2018-03-23T00:01:09.947Z,2.02
2018-03-23T00:01:14.161Z,2.02
2018-03-23T00:01:18.154Z,2
2018-03-23T00:01:21.926Z,1.98
2018-03-23T00:01:26.138Z,2.07
2018-03-23T00:01:30.345Z,2.07
2018-03-23T00:01:34.550Z,2
2018-03-23T00:01:38.866Z,2
2018-03-23T00:01:42.966Z,2.05
2018-03-23T00:01:47.173Z,2.07
2018-03-23T00:01:51.501Z,2.02
2018-03-23T00:01:55.720Z,1.95
2018-03-23T00:01:59.711Z,2
2018-03-23T00:02:03.927Z,2.05
2018-03-23T00:02:07.704Z,2.08
2018-03-23T00:02:11.813Z,2.02
2018-03-23T00:02:16.024Z,2.04
2018-03-23T00:02:20.232Z,2.02
2018-03-23T00:02:24.221Z,2.01
2018-03-23T00:02:28.105Z,2.07
2018-03-23T00:02:32.205Z,2.04
2018-03-23T00:02:36.562Z,1.93
2018-03-23T00:02:40.567Z,2
2018-03-23T00:02:44.570Z,2.07
2018-03-23T00:02:48.672Z,2.08
2018-03-23T00:02:52.682Z,2.02
2018-03-23T00:02:56.893Z,2.04
2018-03-23T00:03:01.107Z,1.93
2018-03-23T00:03:05.483Z,2.02
2018-03-23T00:03:09.472Z,2.04
2018-03-23T00:03:13.573Z,2.02
2018-03-23T00:03:17.780Z,2.07
2018-03-23T00:03:21.774Z,2.04
2018-03-23T00:03:25.983Z,2.04
2018-03-23T00:03:30.078Z,2.05
2018-03-23T00:03:34.199Z,2.04
2018-03-23T00:03:38.306Z,2.07
2018-03-23T00:03:42.518Z,2.02
2018-03-23T00:03:46.729Z,2.02
2018-03-23T00:03:50.938Z,2.09
2018-03-23T00:03:55.037Z,2.04
2018-03-23T00:03:59.132Z,2.02
2018-03-23T00:04:03.426Z,2.02
2018-03-23T00:04:07.635Z,2.09
2018-03-23T00:04:11.736Z,1.92
2018-03-23T00:04:15.738Z,2.04
2018-03-23T00:04:19.841Z,2.08
2018-03-23T00:04:23.836Z,1.95
2018-03-23T00:04:27.892Z,1.92
2018-03-23T00:04:31.995Z,1.9
2018-03-23T00:04:36.202Z,2.02
2018-03-23T00:04:40.410Z,2.08
2018-03-23T00:04:44.613Z,2.05
2018-03-23T00:04:48.604Z,2.08
2018-03-23T00:04:52.598Z,1.88
2018-03-23T00:04:56.925Z,1.93
2018-03-23T00:05:00.806Z,2.05
2018-03-23T00:05:05.131Z,2.04
2018-03-23T00:05:09.135Z,1.89
2018-03-23T00:05:13.391Z,1.93
2018-03-23T00:05:17.716Z,2
2018-03-23T00:05:21.814Z,1.9
2018-03-23T00:05:25.804Z,1.89
2018-03-23T00:05:29.902Z,1.95
2018-03-23T00:05:34.103Z,2.01
2018-03-23T00:05:37.987Z,2
2018-03-23T00:05:42.303Z,2
2018-03-23T00:05:46.293Z,2.08
2018-03-23T00:05:50.288Z,2.01
2018-03-23T00:05:54.391Z,1.93
2018-03-23T00:05:58.380Z,1.93
2018-03-23T00:06:02.737Z,2.05
2018-03-23T00:06:06.510Z,2.02
2018-03-23T00:06:10.826Z,2.04
2018-03-23T00:06:15.138Z,1.98
2018-03-23T00:06:19.351Z,1.92
2018-03-23T00:06:23.349Z,1.89
2018-03-23T00:06:27.455Z,2
2018-03-23T00:06:31.450Z,1.89
2018-03-23T00:06:35.769Z,1.95
2018-03-23T00:06:39.865Z,1.98
2018-03-23T00:06:43.973Z,1.98
2018-03-23T00:06:47.963Z,1.98
2018-03-23T00:06:51.959Z,2.01
2018-03-23T00:06:56.222Z,1.9
2018-03-23T00:07:00.322Z,1.98
2018-03-23T00:07:04.313Z,1.98
2018-03-23T00:07:08.198Z,1.93
2018-03-23T00:07:12.203Z,1.9
2018-03-23T00:07:16.410Z,1.95
2018-03-23T00:07:20.411Z,1.92
2018-03-23T00:07:24.399Z,2.02
2018-03-23T00:07:28.281Z,1.95
2018-03-23T00:07:32.273Z,2.01
2018-03-23T00:07:36.370Z,1.93
2018-03-23T00:07:40.476Z,1.93
2018-03-23T00:07:44.600Z,1.92
2018-03-23T00:07:48.586Z,1.89
2018-03-23T00:07:52.799Z,1.93
2018-03-23T00:07:57.026Z,1.92
2018-03-23T00:08:01.236Z,2.04
2018-03-23T00:08:05.341Z,1.92
2018-03-23T00:08:09.228Z,1.93
2018-03-23T00:08:13.439Z,1.93
2018-03-23T00:08:17.430Z,1.95
2018-03-23T00:08:21.421Z,1.92
2018-03-23T00:08:25.632Z,1.95
2018-03-23T00:08:29.571Z,1.95
2018-03-23T00:08:33.675Z,1.98
2018-03-23T00:08:37.995Z,1.98
2018-03-23T00:08:42.221Z,2
2018-03-23T00:08:46.328Z,2.05
2018-03-23T00:08:50.540Z,1.9
2018-03-23T00:08:54.644Z,1.95
2018-03-23T00:08:58.633Z,1.83
2018-03-23T00:09:02.770Z,1.9
2018-03-23T00:09:07.097Z,1.92
2018-03-23T00:09:11.142Z,1.93
2018-03-23T00:09:15.235Z,2.01
2018-03-23T00:09:19.334Z,1.93
2018-03-23T00:09:23.551Z,1.92
2018-03-23T00:09:27.689Z,1.98
2018-03-23T00:09:31.686Z,1.98
2018-03-23T00:09:36.014Z,1.98
2018-03-23T00:09:40.237Z,1.98
2018-03-23T00:09:44.340Z,1.92
2018-03-23T00:09:48.439Z,1.86
2018-03-23T00:09:52.541Z,1.9
2018-03-23T00:09:56.864Z,1.98
2018-03-23T00:10:01.073Z,1.95
2018-03-23T00:10:05.316Z,1.93
2018-03-23T00:10:09.427Z,1.93
2018-03-23T00:10:13.640Z,1.89
2018-03-23T00:10:17.865Z,1.89
2018-03-23T00:10:21.971Z,1.9
2018-03-23T00:10:26.070Z,2
2018-03-23T00:10:30.056Z,1.95
2018-03-23T00:10:34.164Z,1.9
2018-03-23T00:10:38.168Z,1.92
2018-03-23T00:10:42.160Z,1.92
2018-03-23T00:10:46.372Z,1.95
2018-03-23T00:10:50.580Z,1.89
2018-03-23T00:10:54.467Z,1.92
2018-03-23T00:10:58.469Z,1.89
2018-03-23T00:11:02.458Z,1.9
2018-03-23T00:11:06.459Z,1.95
2018-03-23T00:11:10.665Z,1.9
2018-03-23T00:11:14.984Z,1.93
2018-03-23T00:11:18.971Z,1.9
2018-03-23T00:11:23.294Z,1.98
2018-03-23T00:11:27.175Z,2
2018-03-23T00:11:31.278Z,2
2018-03-23T00:11:35.057Z,1.89
2018-03-23T00:11:39.155Z,1.98
2018-03-23T00:11:43.263Z,1.9
2018-03-23T00:11:47.145Z,1.95
2018-03-23T00:11:51.148Z,2.02
2018-03-23T00:11:55.470Z,1.85
2018-03-23T00:11:59.578Z,1.98
2018-03-23T00:12:03.679Z,1.92
2018-03-23T00:12:07.786Z,2
2018-03-23T00:12:11.780Z,1.92
2018-03-23T00:12:16.002Z,1.98
2018-03-23T00:12:19.991Z,1.98
2018-03-23T00:12:24.347Z,1.9
2018-03-23T00:12:28.122Z,1.98
2018-03-23T00:12:32.334Z,1.92
2018-03-23T00:12:36.650Z,1.89
2018-03-23T00:12:40.748Z,1.98
2018-03-23T00:12:45.058Z,1.93
2018-03-23T00:12:49.223Z,1.95
2018-03-23T00:12:53.209Z,2.01
2018-03-23T00:12:57.319Z,1.92
2018-03-23T00:13:01.532Z,1.92
2018-03-23T00:13:05.835Z,1.9
2018-03-23T00:13:09.831Z,1.9
2018-03-23T00:13:13.932Z,1.93
2018-03-23T00:13:17.924Z,1.93
2018-03-23T00:13:22.027Z,1.93
2018-03-23T00:13:25.911Z,1.98
2018-03-23T00:13:30.115Z,1.9
2018-03-23T00:13:34.012Z,1.95
2018-03-23T00:13:38.114Z,1.9
2018-03-23T00:13:42.213Z,1.92
2018-03-23T00:13:46.529Z,1.95
2018-03-23T00:13:50.424Z,1.92
2018-03-23T00:13:54.415Z,1.9
2018-03-23T00:13:58.512Z,1.92
2018-03-23T00:14:02.606Z,1.88
2018-03-23T00:14:06.817Z,1.92
2018-03-23T00:14:10.807Z,1.88
2018-03-23T00:14:14.902Z,1.93
2018-03-23T00:14:18.787Z,1.9
2018-03-23T00:14:22.773Z,1.93
2018-03-23T00:14:27.104Z,1.89
2018-03-23T00:14:30.994Z,1.89
2018-03-23T00:14:35.200Z,1.9
2018-03-23T00:14:39.410Z,1.93
2018-03-23T00:14:43.396Z,1.89
2018-03-23T00:14:47.506Z,1.93
2018-03-23T00:14:51.612Z,1.92
2018-03-23T00:14:55.493Z,1.92
2018-03-23T00:14:59.482Z,1.9
2018-03-23T00:15:03.480Z,1.92
2018-03-23T00:15:07.705Z,1.92
2018-03-23T00:15:11.805Z,1.88
2018-03-23T00:15:15.911Z,2
2018-03-23T00:15:20.004Z,1.92
2018-03-23T00:15:24.220Z,1.93
2018-03-23T00:15:28.101Z,1.98
2018-03-23T00:15:32.308Z,1.9
2018-03-23T00:15:36.407Z,1.92
2018-03-23T00:15:40.411Z,1.89
2018-03-23T00:15:44.515Z,1.92
2018-03-23T00:15:48.723Z,1.9
2018-03-23T00:15:52.931Z,1.92
2018-03-23T00:15:57.144Z,1.95
2018-03-23T00:16:01.355Z,1.92
2018-03-23T00:16:05.464Z,2.02
2018-03-23T00:16:09.563Z,1.89
2018-03-23T00:16:13.880Z,2
2018-03-23T00:16:17.979Z,1.92
2018-03-23T00:16:21.978Z,1.98
2018-03-23T00:16:26.188Z,1.92
2018-03-23T00:16:30.393Z,1.9
2018-03-23T00:16:34.613Z,1.93
2018-03-23T00:16:38.819Z,1.93
2018-03-23T00:16:43.022Z,2.04
2018-03-23T00:16:47.020Z,1.92
2018-03-23T00:16:51.227Z,1.9
2018-03-23T00:16:55.218Z,1.86
2018-03-23T00:16:59.316Z,1.9
2018-03-23T00:17:03.545Z,1.92
2018-03-23T00:17:07.745Z,1.9
2018-03-23T00:17:11.735Z,1.92
2018-03-23T00:17:15.632Z,1.95
2018-03-23T00:17:19.842Z,2
2018-03-23T00:17:23.938Z,1.92
2018-03-23T00:17:27.934Z,1.98
2018-03-23T00:17:32.038Z,1.88
2018-03-23T00:17:36.248Z,1.95
2018-03-23T00:17:40.456Z,1.93
2018-03-23T00:17:44.349Z,1.92
2018-03-23T00:17:48.337Z,1.9
2018-03-23T00:17:52.442Z,1.9
2018-03-23T00:17:56.433Z,1.89
2018-03-23T00:18:00.645Z,2
2018-03-23T00:18:04.745Z,1.89
2018-03-23T00:18:08.974Z,1.95
2018-03-23T00:18:12.971Z,1.92
2018-03-23T00:18:17.191Z,2.04
2018-03-23T00:18:21.292Z,1.89
2018-03-23T00:18:25.500Z,1.98
2018-03-23T00:18:29.824Z,1.86
2018-03-23T00:18:33.924Z,2
2018-03-23T00:18:38.129Z,1.93
2018-03-23T00:19:14.122Z,1.86
2018-03-23T00:19:18.016Z,1.93
2018-03-23T00:19:22.334Z,2
2018-03-23T00:19:26.335Z,1.95
2018-03-23T00:19:30.547Z,1.9
2018-03-23T00:19:34.538Z,2
2018-03-23T00:19:38.753Z,1.93
2018-03-23T00:19:43.085Z,1.89
2018-03-23T00:19:47.182Z,1.93
2018-03-23T00:19:51.505Z,1.92
2018-03-23T00:19:55.717Z,1.9
2018-03-23T00:19:59.815Z,1.98
2018-03-23T00:20:03.861Z,1.9
2018-03-23T00:20:07.853Z,1.92
2018-03-23T00:20:11.955Z,1.89
2018-03-23T00:20:16.108Z,1.93
2018-03-23T00:20:20.212Z,1.93
2018-03-23T00:20:23.986Z,1.93
2018-03-23T00:20:28.306Z,1.9
2018-03-23T00:20:32.415Z,1.9
2018-03-23T00:20:36.732Z,1.88
2018-03-23T00:20:40.827Z,1.98
2018-03-23T00:20:45.040Z,1.98
2018-03-23T00:20:49.033Z,1.93
2018-03-23T00:20:53.363Z,1.92
2018-03-23T00:20:57.153Z,1.85
2018-03-23T00:21:01.253Z,1.95
2018-03-23T00:21:05.359Z,1.86
2018-03-23T00:21:09.576Z,1.92
2018-03-23T00:21:13.679Z,1.89
2018-03-23T00:21:17.560Z,1.89
2018-03-23T00:21:21.547Z,1.9
2018-03-23T00:21:25.646Z,1.93
2018-03-23T00:21:29.858Z,1.93
2018-03-23T00:21:33.861Z,1.93
2018-03-23T00:21:37.965Z,1.92
2018-03-23T00:21:41.955Z,1.92
2018-03-23T00:21:46.050Z,1.92
2018-03-23T00:21:50.266Z,2
2018-03-23T00:21:54.260Z,1.93
2018-03-23T00:21:58.470Z,1.98
2018-03-23T00:22:02.761Z,2.01
2018-03-23T00:22:06.756Z,1.83
2018-03-23T00:22:10.751Z,1.92
2018-03-23T00:22:15.068Z,1.93
2018-03-23T00:22:19.273Z,1.92
2018-03-23T00:22:23.494Z,1.98
2018-03-23T00:22:27.491Z,1.93
2018-03-23T00:22:31.374Z,1.93
2018-03-23T00:22:35.371Z,1.9
2018-03-23T00:22:39.475Z,1.92
2018-03-23T00:22:43.689Z,1.82
2018-03-23T00:22:47.580Z,2
2018-03-23T00:22:51.782Z,1.95
2018-03-23T00:22:55.770Z,1.92
2018-03-23T00:22:59.883Z,1.93
2018-03-23T00:23:04.074Z,1.95
2018-03-23T00:23:08.283Z,1.92
2018-03-23T00:23:12.382Z,1.93
2018-03-23T00:23:16.378Z,1.95
2018-03-23T00:23:20.378Z,1.93
2018-03-23T00:23:24.598Z,1.93
2018-03-23T00:23:28.599Z,2.04
2018-03-23T00:23:32.842Z,1.92
2018-03-23T00:23:36.737Z,1.9
2018-03-23T00:23:40.950Z,1.92
2018-03-23T00:23:45.056Z,1.93
2018-03-23T00:23:49.372Z,1.93
2018-03-23T00:23:53.580Z,1.93
2018-03-23T00:23:57.789Z,1.92
2018-03-23T00:24:01.794Z,1.98
2018-03-23T00:24:06.105Z,1.92
2018-03-23T00:24:10.320Z,1.93
2018-03-23T00:24:14.416Z,1.93
2018-03-23T00:24:18.627Z,1.9
2018-03-23T00:24:22.725Z,1.9
2018-03-23T00:24:26.943Z,1.89
2018-03-23T00:24:31.041Z,1.89
2018-03-23T00:24:35.250Z,1.93
2018-03-23T00:24:39.246Z,1.89
2018-03-23T00:24:43.244Z,2
2018-03-23T00:24:47.234Z,1.9
2018-03-23T00:24:51.443Z,1.85
2018-03-23T00:24:55.648Z,1.92
2018-03-23T00:24:59.961Z,1.89
2018-03-23T00:25:04.060Z,1.98
2018-03-23T00:25:08.158Z,1.85
2018-03-23T00:25:12.262Z,1.9
2018-03-23T00:25:16.372Z,1.92
2018-03-23T00:25:20.704Z,1.89
2018-03-23T00:25:24.933Z,1.85
2018-03-23T00:25:28.820Z,1.92
2018-03-23T00:25:32.823Z,1.95
2018-03-23T00:25:37.034Z,1.92
2018-03-23T00:25:41.136Z,1.92
2018-03-23T00:25:45.027Z,1.9
2018-03-23T00:25:49.126Z,2
2018-03-23T00:25:53.232Z,1.93
2018-03-23T00:25:57.448Z,1.92
2018-03-23T00:26:01.353Z,1.9
2018-03-23T00:26:05.355Z,1.92
2018-03-23T00:26:09.575Z,1.93
2018-03-23T00:26:13.562Z,1.92
2018-03-23T00:26:17.766Z,1.88
2018-03-23T00:26:21.973Z,1.92
2018-03-23T00:26:25.859Z,1.98
2018-03-23T00:26:30.075Z,2
2018-03-23T00:26:34.290Z,1.98
2018-03-23T00:26:38.398Z,1.86
2018-03-23T00:26:42.610Z,1.89
2018-03-23T00:26:46.816Z,1.92
2018-03-23T00:26:50.815Z,1.98
2018-03-23T00:26:55.131Z,2.04
2018-03-23T00:26:59.228Z,1.93
2018-03-23T00:27:03.433Z,1.93
2018-03-23T00:27:07.314Z,1.93
2018-03-23T00:27:11.418Z,1.9
2018-03-23T00:27:15.514Z,2
2018-03-23T00:27:19.503Z,1.9
2018-03-23T00:27:23.604Z,1.89
2018-03-23T00:27:27.488Z,1.92
2018-03-23T00:27:31.738Z,1.9
2018-03-23T00:27:35.732Z,1.92
2018-03-23T00:27:39.629Z,1.93
2018-03-23T00:27:43.735Z,1.89
2018-03-23T00:27:47.946Z,1.9
2018-03-23T00:27:52.275Z,1.9
2018-03-23T00:27:56.482Z,2.01
2018-03-23T00:28:00.483Z,1.85
2018-03-23T00:28:04.680Z,1.93
2018-03-23T00:28:08.906Z,2
2018-03-23T00:28:13.126Z,1.92
2018-03-23T00:28:17.334Z,1.92
2018-03-23T00:28:21.549Z,1.92
2018-03-23T00:28:25.651Z,1.9
2018-03-23T00:28:29.758Z,1.93
2018-03-23T00:28:33.907Z,1.89
2018-03-23T00:28:38.223Z,1.92
2018-03-23T00:28:42.338Z,1.89
2018-03-23T00:28:46.333Z,1.92
2018-03-23T00:28:50.440Z,1.86
2018-03-23T00:28:54.758Z,1.85
2018-03-23T00:28:58.792Z,1.98
2018-03-23T00:29:02.681Z,1.86
2018-03-23T00:29:06.567Z,1.89
2018-03-23T00:29:10.453Z,1.95
2018-03-23T00:29:14.774Z,1.9
2018-03-23T00:29:18.877Z,1.81
2018-03-23T00:29:23.023Z,1.95
2018-03-23T00:29:27.127Z,1.9
2018-03-23T00:29:31.012Z,1.98
2018-03-23T00:29:35.002Z,1.9
2018-03-23T00:29:39.099Z,1.86
2018-03-23T00:29:43.197Z,1.92
2018-03-23T00:29:47.201Z,1.93
2018-03-23T00:29:51.409Z,1.98
2018-03-23T00:29:55.301Z,1.86
2018-03-23T00:29:59.406Z,1.86
2018-03-23T00:30:03.613Z,1.92
2018-03-23T00:30:07.617Z,2
2018-03-23T00:30:11.823Z,1.9
2018-03-23T00:30:16.142Z,1.98
2018-03-23T00:30:20.026Z,1.9
2018-03-23T00:30:24.356Z,1.98
2018-03-23T00:30:28.344Z,1.93
2018-03-23T00:30:32.437Z,1.9
2018-03-23T00:30:36.429Z,1.9
2018-03-23T00:30:40.652Z,1.98
2018-03-23T00:30:44.975Z,1.86
2018-03-23T00:30:49.072Z,1.86
2018-03-23T00:30:53.063Z,2
2018-03-23T00:30:57.386Z,1.9
2018-03-23T00:31:01.496Z,1.9
2018-03-23T00:31:05.706Z,1.92
2018-03-23T00:31:09.820Z,1.89
2018-03-23T00:31:13.810Z,2
2018-03-23T00:31:17.962Z,1.9
2018-03-23T00:31:22.065Z,1.92
2018-03-23T00:31:26.168Z,1.98
2018-03-23T00:31:30.161Z,1.95
2018-03-23T00:31:34.257Z,1.85
2018-03-23T00:31:38.362Z,1.95
2018-03-23T00:31:42.462Z,1.95
2018-03-23T00:31:46.671Z,1.92
2018-03-23T00:31:51.011Z,1.85
2018-03-23T00:31:55.004Z,1.95
2018-03-23T00:31:59.003Z,1.92
2018-03-23T00:32:03.586Z,1.93
2018-03-23T00:32:07.698Z,1.89
2018-03-23T00:32:11.804Z,2.04
2018-03-23T00:32:15.685Z,2.04
2018-03-23T00:32:19.674Z,1.93
2018-03-23T00:32:23.989Z,1.88
2018-03-23T00:32:28.090Z,2.01
2018-03-23T00:32:31.865Z,1.92
2018-03-23T00:32:35.969Z,1.93
2018-03-23T00:32:40.177Z,1.9
2018-03-23T00:32:44.285Z,1.93
2018-03-23T00:32:48.172Z,1.88
2018-03-23T00:32:52.162Z,1.92
2018-03-23T00:32:56.263Z,2
2018-03-23T00:33:00.483Z,1.93
2018-03-23T00:33:04.452Z,1.9
2018-03-23T00:33:08.781Z,1.95
2018-03-23T00:33:13.093Z,1.98
2018-03-23T00:33:17.195Z,1.98
2018-03-23T00:33:21.317Z,1.89
2018-03-23T00:33:25.306Z,1.95
2018-03-23T00:33:29.407Z,1.9
2018-03-23T00:33:33.415Z,2.04
2018-03-23T00:33:37.631Z,1.93
2018-03-23T00:33:41.854Z,2.02
2018-03-23T00:33:45.833Z,1.89
2018-03-23T00:33:49.933Z,1.92
2018-03-23T00:33:54.248Z,1.98
2018-03-23T00:33:58.356Z,1.95
2018-03-23T00:34:02.025Z,2.01
2018-03-23T00:34:06.132Z,2.04
2018-03-23T00:34:10.450Z,1.95
2018-03-23T00:34:14.655Z,2.01
2018-03-23T00:34:18.981Z,2.04
2018-03-23T00:34:23.190Z,2.04
2018-03-23T00:34:27.072Z,1.92
2018-03-23T00:34:31.180Z,2.02
2018-03-23T00:34:35.385Z,1.93
2018-03-23T00:34:39.483Z,2.01
2018-03-23T00:34:43.706Z,1.92
2018-03-23T00:34:47.916Z,1.95
2018-03-23T00:34:52.132Z,1.92
2018-03-23T00:34:56.343Z,1.9
2018-03-23T00:35:00.449Z,2.01
2018-03-23T00:35:04.652Z,1.92
2018-03-23T00:35:08.647Z,1.9
2018-03-23T00:35:12.746Z,1.93
2018-03-23T00:35:16.741Z,2.04
2018-03-23T00:35:20.838Z,1.98
2018-03-23T00:35:25.151Z,1.98
2018-03-23T00:35:29.038Z,2.02
2018-03-23T00:35:33.350Z,1.93
2018-03-23T00:35:37.681Z,1.95
2018-03-23T00:35:41.783Z,1.93
2018-03-23T00:35:45.665Z,1.98
2018-03-23T00:35:49.550Z,1.92
2018-03-23T00:35:53.865Z,1.93
2018-03-23T00:35:57.967Z,1.9
2018-03-23T00:36:01.861Z,1.9
2018-03-23T00:36:05.958Z,1.98
2018-03-23T00:36:10.170Z,1.95
2018-03-23T00:36:14.160Z,1.88
2018-03-23T00:36:18.255Z,1.95
2018-03-23T00:36:22.464Z,1.98
2018-03-23T00:36:26.773Z,2.01
2018-03-23T00:36:30.763Z,2.04
2018-03-23T00:36:34.648Z,1.98
2018-03-23T00:36:38.536Z,1.93
2018-03-23T00:36:42.524Z,1.93
2018-03-23T00:36:46.515Z,2.04
2018-03-23T00:36:50.617Z,1.98
2018-03-23T00:36:54.829Z,1.93
2018-03-23T00:36:58.922Z,1.93
2018-03-23T00:37:03.281Z,2
2018-03-23T00:37:07.384Z,2.01
2018-03-23T00:37:11.375Z,2.08
2018-03-23T00:37:15.590Z,2.01
2018-03-23T00:37:19.913Z,1.98
2018-03-23T00:37:24.015Z,1.95
2018-03-23T00:37:28.118Z,1.92
2018-03-23T00:37:32.105Z,2.08
2018-03-23T00:37:36.315Z,2.05
2018-03-23T00:37:40.427Z,2.07
2018-03-23T00:37:44.309Z,1.98
2018-03-23T00:37:48.189Z,1.98
2018-03-23T00:37:52.296Z,2
2018-03-23T00:37:56.503Z,2
2018-03-23T00:38:00.704Z,2.02
2018-03-23T00:38:04.696Z,1.95
2018-03-23T00:38:08.800Z,1.98
2018-03-23T00:38:12.899Z,2.08
2018-03-23T00:38:17.214Z,2
2018-03-23T00:38:21.220Z,1.93
2018-03-23T00:38:25.377Z,1.93
2018-03-23T00:38:29.698Z,2.04
2018-03-23T00:38:34.008Z,2.02
2018-03-23T00:38:38.213Z,2.05
2018-03-23T00:38:42.206Z,2.01
2018-03-23T00:38:46.307Z,1.92
2018-03-23T00:38:50.308Z,2.02
2018-03-23T00:38:54.418Z,2
2018-03-23T00:38:58.525Z,2.01
2018-03-23T00:39:02.991Z,2.01
2018-03-23T00:39:07.093Z,1.93
2018-03-23T00:39:11.306Z,2.01
2018-03-23T00:39:15.516Z,2.02
2018-03-23T00:39:19.510Z,1.95
2018-03-23T00:39:23.727Z,2
2018-03-23T00:39:27.634Z,2
2018-03-23T00:39:31.845Z,2.11
2018-03-23T00:39:36.226Z,2.01
2018-03-23T00:39:40.321Z,2.02
2018-03-23T00:39:44.433Z,2.02
2018-03-23T00:39:48.540Z,2.05
2018-03-23T00:39:52.863Z,2.02
2018-03-23T00:39:56.966Z,2.04
2018-03-23T00:40:00.964Z,2.05
2018-03-23T00:40:05.103Z,2
2018-03-23T00:40:09.219Z,2.07
2018-03-23T00:40:13.224Z,2.07
2018-03-23T00:40:17.552Z,2.01
2018-03-23T00:40:21.698Z,2.07
2018-03-23T00:40:25.933Z,2.07
2018-03-23T00:40:30.147Z,2.04
2018-03-23T00:40:34.412Z,2.04
2018-03-23T00:40:38.407Z,2.02
2018-03-23T00:40:42.403Z,2.02
2018-03-23T00:40:46.508Z,2.05
2018-03-23T00:40:50.718Z,1.98
2018-03-23T00:40:54.821Z,2.04
2018-03-23T00:40:58.814Z,2.05
2018-03-23T00:41:02.701Z,2.02
2018-03-23T00:41:06.803Z,2
2018-03-23T00:41:10.788Z,2.02
2018-03-23T00:41:14.779Z,2.02
2018-03-23T00:41:18.988Z,2.08
2018-03-23T00:41:23.091Z,2.04
2018-03-23T00:41:27.198Z,2.02
2018-03-23T00:41:31.518Z,2.02
2018-03-23T00:41:35.749Z,2.04
2018-03-23T00:41:39.958Z,2.11
2018-03-23T00:41:43.848Z,2.05
2018-03-23T00:41:48.062Z,2.05
2018-03-23T00:41:51.952Z,2.07
2018-03-23T00:41:56.051Z,2.07
2018-03-23T00:42:00.373Z,2.01
2018-03-23T00:42:36.364Z,2.07
2018-03-23T00:42:40.575Z,2.05
2018-03-23T00:42:44.822Z,2.05
2018-03-23T00:42:49.058Z,2.02
2018-03-23T00:42:53.275Z,2.02
2018-03-23T00:42:57.481Z,2.08
2018-03-23T00:43:01.944Z,2.02
2018-03-23T00:43:05.936Z,2.05
2018-03-23T00:43:10.255Z,2.02
2018-03-23T00:43:14.138Z,2.04
2018-03-23T00:43:18.134Z,2.08
2018-03-23T00:43:22.456Z,2.05
2018-03-23T00:43:26.559Z,2.05
2018-03-23T00:43:30.897Z,2.05
2018-03-23T00:43:35.018Z,2.14
2018-03-23T00:43:39.293Z,2.01
2018-03-23T00:43:43.397Z,2.02
2018-03-23T00:43:47.494Z,2.08
2018-03-23T00:43:51.490Z,2.05
2018-03-23T00:43:55.594Z,2.02
2018-03-23T00:43:59.583Z,2.04
2018-03-23T00:44:03.687Z,2.08
2018-03-23T00:44:07.789Z,2.07
2018-03-23T00:44:11.900Z,2.05
2018-03-23T00:44:15.891Z,2.07
2018-03-23T00:44:19.994Z,2.02
2018-03-23T00:44:24.250Z,2.02
2018-03-23T00:44:28.245Z,2.05
2018-03-23T00:44:32.350Z,2.04
2018-03-23T00:44:36.348Z,2.05
2018-03-23T00:44:40.237Z,2.07
2018-03-23T00:44:44.549Z,2.09
2018-03-23T00:44:48.761Z,2.02
2018-03-23T00:44:52.969Z,2.04
2018-03-23T00:44:57.182Z,2.02
2018-03-23T00:45:01.864Z,2.09
2018-03-23T00:45:05.863Z,2.07
2018-03-23T00:45:09.963Z,2.08
2018-03-23T00:45:14.278Z,2.05
2018-03-23T00:45:18.279Z,2.04
2018-03-23T00:45:22.270Z,2.09
2018-03-23T00:45:26.260Z,2.05
2018-03-23T00:45:30.472Z,2.05
2018-03-23T00:45:34.582Z,2.04
2018-03-23T00:45:38.687Z,2.08
2018-03-23T00:45:42.787Z,2.09
2018-03-23T00:45:46.671Z,2.02
2018-03-23T00:45:50.884Z,2.02
2018-03-23T00:45:54.876Z,2.02
2018-03-23T00:45:59.202Z,2.11
2018-03-23T00:46:03.307Z,2.09
2018-03-23T00:46:07.421Z,2.08
2018-03-23T00:46:11.646Z,2.05
2018-03-23T00:46:15.746Z,2.05
2018-03-23T00:46:19.950Z,2.02
2018-03-23T00:46:24.061Z,2.02
2018-03-23T00:46:28.277Z,2.02
2018-03-23T00:46:32.494Z,2.08
2018-03-23T00:46:36.487Z,2
2018-03-23T00:46:40.584Z,2.02
2018-03-23T00:46:44.695Z,2.04
2018-03-23T00:46:48.900Z,2.07
2018-03-23T00:46:53.010Z,2.01
2018-03-23T00:46:57.220Z,2.04
2018-03-23T00:47:01.455Z,2.05
2018-03-23T00:47:05.349Z,2
2018-03-23T00:47:09.667Z,2.07
2018-03-23T00:47:13.766Z,2.05
2018-03-23T00:47:17.866Z,2.04
2018-03-23T00:47:21.982Z,2.05
2018-03-23T00:47:26.203Z,2.05
2018-03-23T00:47:30.537Z,2.01
2018-03-23T00:47:34.652Z,2.05
2018-03-23T00:47:38.752Z,2.02
2018-03-23T00:47:42.964Z,2.02
2018-03-23T00:47:47.176Z,2.01
2018-03-23T00:47:51.388Z,2.02
2018-03-23T00:47:55.385Z,2.14
2018-03-23T00:47:59.485Z,2.14
2018-03-23T00:48:03.477Z,2.05
2018-03-23T00:48:07.365Z,2.04
2018-03-23T00:48:11.579Z,2.05
2018-03-23T00:48:15.679Z,2.12
2018-03-23T00:48:19.678Z,2.05
2018-03-23T00:48:23.782Z,2.01
2018-03-23T00:48:27.882Z,2.09
2018-03-23T00:48:31.655Z,2.09
2018-03-23T00:48:35.647Z,2.05
2018-03-23T00:48:39.748Z,2.04
2018-03-23T00:48:43.972Z,2.07
2018-03-23T00:48:47.971Z,2.11
2018-03-23T00:48:52.187Z,2.08
2018-03-23T00:48:56.295Z,2.08
2018-03-23T00:49:00.284Z,2.14
2018-03-23T00:49:04.575Z,2.08
2018-03-23T00:49:08.675Z,2.07
2018-03-23T00:49:12.782Z,2.09
2018-03-23T00:49:16.997Z,2.11
2018-03-23T00:49:21.086Z,2.12
2018-03-23T00:49:24.970Z,2.09
2018-03-23T00:49:28.749Z,2.14
2018-03-23T00:49:32.847Z,2.04
2018-03-23T00:49:36.944Z,2.18
2018-03-23T00:49:41.044Z,2.18
2018-03-23T00:49:45.374Z,2.05
2018-03-23T00:49:49.373Z,2.11
2018-03-23T00:49:53.478Z,2.08
2018-03-23T00:49:57.607Z,2.11
2018-03-23T00:50:01.493Z,2.12
2018-03-23T00:50:05.730Z,2.05
2018-03-23T00:50:09.626Z,2.14
2018-03-23T00:50:13.726Z,2.08
2018-03-23T00:50:17.842Z,2.11
2018-03-23T00:50:22.164Z,2.08
2018-03-23T00:50:26.047Z,2.15
2018-03-23T00:50:30.039Z,2.07
2018-03-23T00:50:34.264Z,2.09
2018-03-23T00:50:38.364Z,2.05
2018-03-23T00:50:42.690Z,2.07
2018-03-23T00:50:46.850Z,2.07
2018-03-23T00:50:51.073Z,2.07
2018-03-23T00:50:55.279Z,2.08
2018-03-23T00:50:59.378Z,2.07
2018-03-23T00:51:03.372Z,2.12
2018-03-23T00:51:07.359Z,2.07
2018-03-23T00:51:11.564Z,2.07
2018-03-23T00:51:15.560Z,2.14
2018-03-23T00:51:19.765Z,2.11
2018-03-23T00:51:23.978Z,2.14
2018-03-23T00:51:27.754Z,2.14
2018-03-23T00:51:31.853Z,2.14
2018-03-23T00:51:35.955Z,2.09
2018-03-23T00:51:39.948Z,2.01
2018-03-23T00:51:44.060Z,2.12
2018-03-23T00:51:48.265Z,2.08
2018-03-23T00:51:52.473Z,2.19
2018-03-23T00:51:56.575Z,2.11
2018-03-23T00:52:00.722Z,2.14
2018-03-23T00:52:04.822Z,2.07
2018-03-23T00:52:08.709Z,2.05
2018-03-23T00:52:12.808Z,2.14
2018-03-23T00:52:17.132Z,2.05
2018-03-23T00:52:21.507Z,2.09
2018-03-23T00:52:25.280Z,2.04
2018-03-23T00:52:29.273Z,2.08
2018-03-23T00:52:33.378Z,2.02
2018-03-23T00:52:37.479Z,2.05
2018-03-23T00:52:41.578Z,2.08
2018-03-23T00:52:45.812Z,2.08
2018-03-23T00:52:49.804Z,2.12
2018-03-23T00:52:53.901Z,1.98
2018-03-23T00:52:57.999Z,2.07
2018-03-23T00:53:02.037Z,2.05
2018-03-23T00:53:06.135Z,2.05
2018-03-23T00:53:10.348Z,2.05
2018-03-23T00:53:14.557Z,2.14
2018-03-23T00:53:18.661Z,2.14
2018-03-23T00:53:22.762Z,2.11
2018-03-23T00:53:26.860Z,2.02
2018-03-23T00:53:30.856Z,2.08
2018-03-23T00:53:35.177Z,2.04
2018-03-23T00:53:39.064Z,2.05
2018-03-23T00:53:43.264Z,2.09
2018-03-23T00:53:47.367Z,2.04
2018-03-23T00:53:51.359Z,2.11
2018-03-23T00:53:55.346Z,2.08
2018-03-23T00:53:59.337Z,2.05
2018-03-23T00:54:03.445Z,2.04
2018-03-23T00:54:07.433Z,2.08
2018-03-23T00:54:11.749Z,2.07
2018-03-23T00:54:15.852Z,2.11
2018-03-23T00:54:19.956Z,2.08
2018-03-23T00:54:24.058Z,2.11
2018-03-23T00:54:27.942Z,2.11
2018-03-23T00:54:32.163Z,2.04
2018-03-23T00:54:36.266Z,2.07
2018-03-23T00:54:40.365Z,2.09
2018-03-23T00:54:44.375Z,2.14
2018-03-23T00:54:48.581Z,2.08
2018-03-23T00:54:52.681Z,2.08
2018-03-23T00:54:56.783Z,2.11
2018-03-23T00:55:01.085Z,2.11
2018-03-23T00:55:05.222Z,2.05
2018-03-23T00:55:09.325Z,2.14
2018-03-23T00:55:13.640Z,2.09
2018-03-23T00:55:17.857Z,2.05
2018-03-23T00:55:22.063Z,2.11
2018-03-23T00:55:26.379Z,2.11
2018-03-23T00:55:30.487Z,2.11
2018-03-23T00:55:34.589Z,2.08
2018-03-23T00:55:38.802Z,2.01
2018-03-23T00:55:42.902Z,2.12
2018-03-23T00:55:46.914Z,2.15
2018-03-23T00:55:50.908Z,2.05
2018-03-23T00:55:55.134Z,2.15
2018-03-23T00:55:59.342Z,2.09
2018-03-23T00:56:03.332Z,2.15
2018-03-23T00:56:07.219Z,2.11
2018-03-23T00:56:11.326Z,2.15
2018-03-23T00:56:15.324Z,2.11
2018-03-23T00:56:19.536Z,2.08